createdAt,value
2017-10-05T00:01:51.796Z,94.76
2017-10-05T00:04:17.987Z,95.00
2017-10-05T00:06:44.190Z,94.94
2017-10-05T00:09:10.400Z,94.95
2017-10-05T00:11:36.598Z,95.11
2017-10-05T00:14:02.824Z,95.14
2017-10-05T00:16:29.026Z,95.20
2017-10-05T00:18:55.254Z,95.23
2017-10-05T00:21:21.430Z,95.14
2017-10-05T00:23:47.584Z,95.31
2017-10-05T00:26:13.750Z,95.34
2017-10-05T00:28:39.925Z,95.38
2017-10-05T00:31:06.102Z,95.46
2017-10-05T00:33:32.274Z,95.58
2017-10-05T00:35:58.448Z,95.51
2017-10-05T00:38:24.641Z,95.68
2017-10-05T00:40:50.839Z,95.32
2017-10-05T00:43:17.030Z,95.67
2017-10-05T00:45:43.213Z,95.35
2017-10-05T00:48:09.380Z,95.43
2017-10-05T00:50:35.559Z,95.41
2017-10-05T00:53:01.751Z,95.30
2017-10-05T00:55:27.933Z,95.49
2017-10-05T00:57:54.134Z,95.63
2017-10-05T01:00:20.320Z,95.93
2017-10-05T01:02:46.498Z,95.73
2017-10-05T01:05:12.724Z,96.13
2017-10-05T01:07:38.912Z,95.93
2017-10-05T01:10:05.102Z,96.11
2017-10-05T01:12:31.280Z,96.20
2017-10-05T01:14:57.469Z,96.31
2017-10-05T01:17:23.672Z,96.23
2017-10-05T01:19:49.884Z,96.19
2017-10-05T01:22:16.081Z,96.11
2017-10-05T01:24:42.276Z,96.13
2017-10-05T01:27:08.486Z,95.93
2017-10-05T01:29:34.766Z,95.75
2017-10-05T01:32:00.950Z,95.81
2017-10-05T01:34:27.118Z,95.63
2017-10-05T01:36:53.329Z,95.85
2017-10-05T01:39:19.524Z,95.81
2017-10-05T01:41:45.709Z,95.92
2017-10-05T01:44:11.912Z,96.25
2017-10-05T01:46:38.113Z,96.22
2017-10-05T01:49:04.309Z,96.19
2017-10-05T01:51:30.504Z,96.36
2017-10-05T01:53:56.736Z,96.51
2017-10-05T01:56:22.915Z,96.89
2017-10-05T01:58:49.103Z,96.68
2017-10-05T02:01:15.297Z,96.53
2017-10-05T02:03:41.490Z,96.63
2017-10-05T02:06:07.733Z,96.39
2017-10-05T02:08:33.929Z,96.46
2017-10-05T02:11:00.129Z,96.44
2017-10-05T02:13:26.329Z,96.39
2017-10-05T02:15:52.500Z,96.56
2017-10-05T02:18:18.698Z,96.94
2017-10-05T02:20:44.889Z,96.92
2017-10-05T02:23:11.097Z,96.72
2017-10-05T02:25:37.297Z,96.66
2017-10-05T02:28:03.496Z,96.71
2017-10-05T02:30:29.718Z,96.89
2017-10-05T02:32:55.905Z,96.75
2017-10-05T02:35:22.115Z,96.90
2017-10-05T02:37:48.328Z,96.75
2017-10-05T02:40:14.501Z,96.55
2017-10-05T02:42:40.726Z,96.63
2017-10-05T02:45:06.944Z,96.73
2017-10-05T02:47:33.128Z,96.89
2017-10-05T02:49:59.345Z,96.89
2017-10-05T02:52:25.556Z,96.97
2017-10-05T02:54:51.779Z,96.92
2017-10-05T02:57:17.962Z,97.09
2017-10-05T02:59:44.137Z,97.43
2017-10-05T03:02:10.329Z,97.25
2017-10-05T03:04:36.520Z,97.38
2017-10-05T03:07:02.777Z,97.38
2017-10-05T03:09:28.964Z,97.53
2017-10-05T03:11:55.153Z,97.34
2017-10-05T03:14:21.341Z,97.46
2017-10-05T03:16:47.534Z,97.81
2017-10-05T03:19:13.722Z,98.11
2017-10-05T03:21:39.910Z,98.26
2017-10-05T03:24:06.126Z,98.63
2017-10-05T03:26:32.294Z,98.35
2017-10-05T03:28:58.485Z,98.35
2017-10-05T03:31:24.713Z,98.17
2017-10-05T03:33:50.908Z,98.01
2017-10-05T03:36:17.114Z,98.27
2017-10-05T03:38:43.312Z,98.11
2017-10-05T03:41:09.503Z,98.04
2017-10-05T03:43:35.714Z,98.10
2017-10-05T03:46:01.929Z,97.83
2017-10-05T03:48:28.115Z,97.67
2017-10-05T03:50:54.322Z,97.43
2017-10-05T03:53:20.521Z,97.31
2017-10-05T03:55:46.766Z,96.72
2017-10-05T03:58:12.964Z,96.66
2017-10-05T04:00:39.152Z,96.96
2017-10-05T04:03:05.325Z,96.94
2017-10-05T04:05:31.503Z,96.46
2017-10-05T04:07:57.759Z,96.41
2017-10-05T04:10:23.934Z,96.38
2017-10-05T04:12:50.127Z,96.33
2017-10-05T04:15:16.366Z,96.06
2017-10-05T04:17:42.563Z,96.06
2017-10-05T04:20:08.836Z,96.09
2017-10-05T04:22:35.031Z,95.80
2017-10-05T04:25:01.235Z,95.71
2017-10-05T04:27:27.428Z,95.69
2017-10-05T04:29:53.621Z,95.93
2017-10-05T04:32:19.801Z,96.31
2017-10-05T04:34:45.988Z,95.92
2017-10-05T04:37:12.196Z,96.13
2017-10-05T04:39:38.381Z,96.20
2017-10-05T04:42:04.554Z,95.98
2017-10-05T04:44:30.807Z,94.92
2017-10-05T04:46:57.004Z,94.70
2017-10-05T04:49:23.195Z,93.15
2017-10-05T04:51:49.408Z,89.71
2017-10-05T04:54:15.605Z,85.39
2017-10-05T04:56:41.812Z,79.66
2017-10-05T04:59:08.073Z,77.99
2017-10-05T05:01:34.266Z,75.22
2017-10-05T05:04:00.466Z,72.67
2017-10-05T05:06:26.664Z,72.82
2017-10-05T05:08:52.887Z,72.39
2017-10-05T05:11:19.070Z,71.75
2017-10-05T05:13:45.262Z,69.98
2017-10-05T05:16:11.506Z,67.04
2017-10-05T05:18:37.698Z,66.97
2017-10-05T05:21:03.878Z,67.39
2017-10-05T05:23:30.049Z,65.92
2017-10-05T05:25:56.231Z,62.95
2017-10-05T05:28:22.441Z,58.25
2017-10-05T05:30:48.620Z,55.57
2017-10-05T05:33:14.781Z,52.58
2017-10-05T05:35:40.984Z,48.36
2017-10-05T05:38:07.147Z,45.83
2017-10-05T05:40:33.367Z,44.86
2017-10-05T05:42:59.549Z,42.78
2017-10-05T05:45:25.879Z,42.28
2017-10-05T05:47:52.116Z,43.33
2017-10-05T05:50:18.367Z,42.09
2017-10-05T05:52:44.562Z,42.19
2017-10-05T05:55:10.807Z,41.54
2017-10-05T05:57:36.987Z,41.73
2017-10-05T06:00:03.171Z,43.78
2017-10-05T06:02:29.381Z,44.11
2017-10-05T06:04:55.573Z,41.71
2017-10-05T06:07:21.743Z,41.65
2017-10-05T06:09:47.948Z,41.01
2017-10-05T06:12:14.132Z,40.25
2017-10-05T06:14:40.347Z,40.68
2017-10-05T06:17:06.547Z,41.09
2017-10-05T06:19:32.729Z,42.80
2017-10-05T06:21:58.930Z,40.82
2017-10-05T06:24:25.127Z,38.15
2017-10-05T06:26:51.340Z,38.82
2017-10-05T06:29:17.541Z,37.92
2017-10-05T06:31:43.763Z,37.52
2017-10-05T06:34:09.948Z,37.29
2017-10-05T06:36:36.128Z,38.16
2017-10-05T06:39:02.365Z,36.55
2017-10-05T06:41:28.570Z,36.01
2017-10-05T06:43:54.745Z,36.08
2017-10-05T06:46:20.933Z,36.52
2017-10-05T06:48:47.108Z,36.69
2017-10-05T06:51:13.336Z,37.44
2017-10-05T06:53:39.525Z,37.75
2017-10-05T06:56:05.725Z,36.20
2017-10-05T06:58:31.915Z,36.38
2017-10-05T07:00:58.126Z,37.99
2017-10-05T07:03:24.324Z,37.11
2017-10-05T07:05:50.502Z,36.60
2017-10-05T07:08:16.712Z,35.38
2017-10-05T07:10:42.898Z,36.92
2017-10-05T07:13:09.092Z,36.09
2017-10-05T07:15:35.321Z,36.68
2017-10-05T07:18:01.520Z,35.31
2017-10-05T07:20:27.726Z,32.90
2017-10-05T07:22:53.940Z,31.99
2017-10-05T07:25:20.154Z,33.46
2017-10-05T07:27:46.342Z,33.31
2017-10-05T07:30:12.533Z,32.38
2017-10-05T07:32:38.706Z,31.31
2017-10-05T07:35:04.882Z,33.12
2017-10-05T07:37:31.060Z,33.66
2017-10-05T07:39:57.273Z,31.60
2017-10-05T07:42:23.459Z,31.51
2017-10-05T07:44:49.644Z,32.12
2017-10-05T07:47:16.036Z,32.17
2017-10-05T07:49:42.227Z,32.89
2017-10-05T07:52:08.477Z,32.14
2017-10-05T07:54:34.663Z,31.33
2017-10-05T07:57:00.868Z,30.95
2017-10-05T07:59:27.064Z,31.82
2017-10-05T08:01:53.244Z,28.86
2017-10-05T08:04:19.425Z,27.53
2017-10-05T08:06:45.628Z,27.17
2017-10-05T08:09:11.816Z,28.21
2017-10-05T08:11:38.000Z,29.17
2017-10-05T08:14:04.193Z,29.88
2017-10-05T08:16:30.390Z,26.05
2017-10-05T08:21:28.989Z,25.99
2017-10-05T08:23:55.199Z,26.47
2017-10-05T08:26:21.403Z,26.91
2017-10-05T08:28:47.634Z,26.02
2017-10-05T08:31:13.809Z,25.27
2017-10-05T08:33:39.977Z,26.18
2017-10-05T08:36:06.141Z,27.70
2017-10-05T08:38:32.327Z,26.34
2017-10-05T08:40:58.519Z,27.17
2017-10-05T08:43:24.740Z,27.83
2017-10-05T08:45:50.916Z,27.63
2017-10-05T08:48:17.102Z,26.25
2017-10-05T08:50:43.349Z,25.76
2017-10-05T08:53:09.530Z,26.44
2017-10-05T08:55:35.700Z,25.80
2017-10-05T08:58:01.892Z,27.34
2017-10-05T09:00:28.055Z,25.08
2017-10-05T09:02:54.236Z,24.71
2017-10-05T09:05:20.427Z,24.06
2017-10-05T09:07:46.634Z,25.20
2017-10-05T09:10:12.837Z,24.15
2017-10-05T09:12:39.019Z,22.20
2017-10-05T09:15:05.198Z,24.17
2017-10-05T09:17:31.371Z,25.09
2017-10-05T09:19:57.614Z,24.49
2017-10-05T09:22:23.779Z,23.35
2017-10-05T09:24:49.994Z,23.93
2017-10-05T09:27:16.306Z,24.61
2017-10-05T09:29:42.470Z,24.33
2017-10-05T09:32:08.678Z,24.02
2017-10-05T09:34:34.844Z,23.22
2017-10-05T09:37:01.012Z,21.74
2017-10-05T09:39:27.220Z,22.88
2017-10-05T09:41:53.398Z,24.22
2017-10-05T09:44:19.626Z,25.38
2017-10-05T09:46:45.792Z,24.04
2017-10-05T09:49:11.990Z,23.10
2017-10-05T09:51:38.143Z,24.18
2017-10-05T09:54:04.317Z,24.28
2017-10-05T09:56:30.530Z,22.36
2017-10-05T09:58:56.726Z,22.51
2017-10-05T10:01:22.894Z,22.62
2017-10-05T10:03:49.062Z,24.88
2017-10-05T10:06:15.219Z,23.65
2017-10-05T10:08:41.394Z,27.13
2017-10-05T10:11:07.602Z,28.21
2017-10-05T10:13:33.813Z,28.56
2017-10-05T10:16:00.003Z,30.00
2017-10-05T10:18:26.194Z,28.36
2017-10-05T10:20:52.380Z,29.26
2017-10-05T10:23:18.560Z,30.62
2017-10-05T10:25:44.739Z,28.34
2017-10-05T10:28:10.925Z,26.66
2017-10-05T10:30:37.111Z,25.98
2017-10-05T10:33:03.298Z,24.33
2017-10-05T10:35:29.476Z,25.36
2017-10-05T10:37:55.658Z,25.27
2017-10-05T10:40:21.860Z,26.38
2017-10-05T10:42:48.043Z,24.43
2017-10-05T10:45:14.256Z,26.54
2017-10-05T10:47:40.481Z,26.38
2017-10-05T10:50:06.642Z,25.98
2017-10-05T10:52:33.001Z,27.07
2017-10-05T10:54:59.227Z,25.60
2017-10-05T10:57:25.556Z,26.88
2017-10-05T10:59:51.729Z,25.22
2017-10-05T11:02:17.926Z,25.60
2017-10-05T11:04:44.110Z,23.84
2017-10-05T11:07:10.295Z,23.91
2017-10-05T11:09:36.460Z,24.91
2017-10-05T11:12:02.609Z,27.22
2017-10-05T11:14:28.769Z,26.28
2017-10-05T11:16:54.960Z,26.60
2017-10-05T11:19:21.600Z,24.93
2017-10-05T11:21:47.769Z,23.64
2017-10-05T11:24:13.956Z,23.81
2017-10-05T11:26:40.271Z,21.29
2017-10-05T11:29:06.455Z,20.33
2017-10-05T11:31:32.632Z,20.97
2017-10-05T11:33:58.865Z,21.39
2017-10-05T11:36:25.047Z,20.71
2017-10-05T11:38:51.238Z,20.35
2017-10-05T11:41:17.439Z,20.84
2017-10-05T11:43:43.674Z,22.08
2017-10-05T11:46:09.866Z,23.55
2017-10-05T11:48:36.070Z,21.77
2017-10-05T11:51:02.267Z,21.36
2017-10-05T11:53:28.465Z,21.12
2017-10-05T11:55:54.686Z,23.16
2017-10-05T11:58:20.868Z,23.43
2017-10-05T12:00:47.061Z,23.03
2017-10-05T12:03:13.249Z,23.54
2017-10-05T12:05:39.419Z,23.30
2017-10-05T12:08:05.577Z,25.92
2017-10-05T12:10:31.797Z,22.99
2017-10-05T12:12:57.966Z,22.75
2017-10-05T12:15:24.149Z,22.26
2017-10-05T12:17:50.335Z,20.02
2017-10-05T12:20:17.144Z,21.75
2017-10-05T12:22:43.324Z,22.13
2017-10-05T12:25:09.479Z,22.73
2017-10-05T12:27:35.689Z,22.34
2017-10-05T12:30:01.849Z,20.39
2017-10-05T12:32:28.049Z,21.60
2017-10-05T12:34:54.234Z,20.76
2017-10-05T12:37:20.407Z,20.50
2017-10-05T12:39:46.636Z,21.69
2017-10-05T12:42:12.826Z,19.95
2017-10-05T12:44:39.009Z,21.96
2017-10-05T12:47:05.172Z,21.41
2017-10-05T12:49:31.371Z,19.83
2017-10-05T12:51:57.550Z,20.86
2017-10-05T12:54:23.723Z,20.21
2017-10-05T12:56:49.903Z,21.68
2017-10-05T12:59:16.075Z,19.16
2017-10-05T13:01:42.255Z,21.06
2017-10-05T13:04:08.459Z,20.35
2017-10-05T13:06:34.631Z,19.92
2017-10-05T13:09:00.823Z,19.07
2017-10-05T13:11:27.033Z,20.61
2017-10-05T13:13:53.206Z,20.04
2017-10-05T13:16:19.402Z,19.78
2017-10-05T13:18:45.598Z,21.20
2017-10-05T13:21:11.766Z,21.24
2017-10-05T13:23:37.958Z,22.01
2017-10-05T13:26:04.198Z,23.55
2017-10-05T13:28:30.490Z,25.17
2017-10-05T13:30:56.677Z,26.62
2017-10-05T13:33:22.855Z,27.90
2017-10-05T13:35:49.094Z,28.35
2017-10-05T13:38:15.275Z,30.09
2017-10-05T13:40:41.445Z,30.62
2017-10-05T13:43:07.634Z,30.27
2017-10-05T13:45:34.476Z,32.18
2017-10-05T13:48:00.688Z,32.43
2017-10-05T13:50:26.866Z,32.32
2017-10-05T13:52:53.050Z,32.90
2017-10-05T13:55:19.244Z,31.85
2017-10-05T13:57:45.433Z,32.36
2017-10-05T14:00:11.637Z,32.64
2017-10-05T14:02:37.878Z,34.24
2017-10-05T14:05:04.083Z,32.82
2017-10-05T14:07:30.302Z,32.88
2017-10-05T14:09:56.541Z,33.99
2017-10-05T14:12:22.750Z,34.06
2017-10-05T14:14:48.949Z,33.52
2017-10-05T14:17:15.132Z,34.63
2017-10-05T14:19:41.361Z,35.25
2017-10-05T14:22:07.539Z,34.45
2017-10-05T14:24:33.734Z,35.09
2017-10-05T14:26:59.926Z,34.00
2017-10-05T14:29:26.112Z,34.54
2017-10-05T14:31:52.278Z,35.19
2017-10-05T14:34:18.465Z,34.64
2017-10-05T14:36:44.665Z,35.71
2017-10-05T14:39:10.863Z,35.11
2017-10-05T14:41:37.043Z,36.42
2017-10-05T14:44:03.270Z,36.48
2017-10-05T14:46:29.447Z,36.33
2017-10-05T14:48:55.608Z,36.22
2017-10-05T14:51:21.800Z,36.05
2017-10-05T14:53:47.949Z,36.53
2017-10-05T14:56:14.138Z,36.50
2017-10-05T14:58:40.338Z,36.66
2017-10-05T15:01:06.525Z,36.73
2017-10-05T15:03:32.762Z,36.91
2017-10-05T15:05:58.921Z,37.96
2017-10-05T15:08:25.103Z,39.06
2017-10-05T15:10:51.304Z,39.12
2017-10-05T15:13:17.511Z,42.44
2017-10-05T15:15:43.712Z,41.59
2017-10-05T15:18:09.901Z,44.51
2017-10-05T15:20:36.129Z,44.13
2017-10-05T15:23:02.313Z,47.21
2017-10-05T15:25:28.477Z,47.19
2017-10-05T15:27:54.660Z,47.92
2017-10-05T15:30:20.855Z,48.17
2017-10-05T15:32:47.035Z,49.63
2017-10-05T15:35:13.211Z,51.28
2017-10-05T15:37:39.390Z,52.42
2017-10-05T15:40:05.576Z,52.75
2017-10-05T15:42:31.730Z,52.69
2017-10-05T15:44:57.938Z,53.86
2017-10-05T15:47:24.107Z,53.00
2017-10-05T15:49:50.300Z,56.24
2017-10-05T15:52:16.513Z,57.51
2017-10-05T15:54:42.725Z,57.45
2017-10-05T15:57:09.012Z,57.86
2017-10-05T15:59:35.162Z,58.45
2017-10-05T16:02:01.356Z,61.08
2017-10-05T16:04:27.554Z,61.85
2017-10-05T16:06:53.703Z,62.50
2017-10-05T16:09:19.906Z,63.13
2017-10-05T16:11:46.086Z,63.48
2017-10-05T16:14:12.270Z,63.51
2017-10-05T16:16:38.436Z,63.85
2017-10-05T16:19:04.646Z,64.12
2017-10-05T16:21:30.915Z,65.68
2017-10-05T16:23:57.069Z,66.03
2017-10-05T16:26:23.253Z,67.73
2017-10-05T16:28:49.419Z,68.19
2017-10-05T16:31:15.585Z,68.52
2017-10-05T16:33:41.741Z,70.24
2017-10-05T16:36:07.935Z,70.71
2017-10-05T16:38:34.104Z,70.78
2017-10-05T16:41:00.297Z,69.93
2017-10-05T16:43:26.460Z,72.10
2017-10-05T16:45:52.622Z,70.04
2017-10-05T16:48:18.772Z,68.50
2017-10-05T16:50:44.946Z,70.81
2017-10-05T16:53:11.141Z,73.41
2017-10-05T16:55:37.293Z,72.01
2017-10-05T16:58:03.490Z,73.43
2017-10-05T17:00:29.640Z,72.81
2017-10-05T17:02:55.809Z,74.89
2017-10-05T17:05:21.982Z,73.59
2017-10-05T17:07:48.178Z,72.14
2017-10-05T17:10:14.358Z,73.32
2017-10-05T17:12:40.585Z,74.53
2017-10-05T17:15:06.757Z,75.32
2017-10-05T17:17:32.960Z,74.98
2017-10-05T17:19:59.286Z,76.34
2017-10-05T17:22:25.459Z,75.30
2017-10-05T17:24:51.628Z,77.21
2017-10-05T17:27:17.845Z,77.07
2017-10-05T17:29:43.995Z,78.00
2017-10-05T17:32:10.147Z,77.26
2017-10-05T17:34:36.316Z,77.69
2017-10-05T17:37:02.467Z,73.98
2017-10-05T17:39:28.674Z,74.40
2017-10-05T17:41:54.846Z,76.30
2017-10-05T17:44:20.992Z,77.17
2017-10-05T17:46:47.186Z,77.93
2017-10-05T17:49:13.336Z,75.98
2017-10-05T17:51:39.473Z,77.74
2017-10-05T17:54:05.611Z,76.78
2017-10-05T17:56:31.758Z,78.63
2017-10-05T17:58:57.929Z,77.97
2017-10-05T18:01:24.092Z,78.72
2017-10-05T18:03:50.247Z,78.52
2017-10-05T18:06:16.422Z,80.02
2017-10-05T18:08:42.572Z,78.96
2017-10-05T18:11:08.778Z,79.69
2017-10-05T18:13:34.926Z,80.61
2017-10-05T18:16:01.076Z,80.31
2017-10-05T18:18:27.248Z,80.77
2017-10-05T18:20:53.407Z,81.12
2017-10-05T18:23:19.609Z,80.55
2017-10-05T18:25:45.783Z,79.29
2017-10-05T18:28:11.932Z,80.50
2017-10-05T18:30:38.084Z,80.44
2017-10-05T18:33:04.250Z,81.37
2017-10-05T18:35:30.419Z,82.14
2017-10-05T18:37:56.640Z,82.09
2017-10-05T18:40:22.830Z,81.62
2017-10-05T18:42:49.009Z,82.50
2017-10-05T18:45:15.267Z,83.31
2017-10-05T18:47:41.452Z,83.47
2017-10-05T18:50:07.629Z,83.09
2017-10-05T18:52:33.829Z,83.38
2017-10-05T18:55:00.058Z,82.10
2017-10-05T18:57:26.267Z,82.23
2017-10-05T18:59:52.422Z,82.74
2017-10-05T19:02:18.594Z,84.49
2017-10-05T19:04:44.781Z,83.66
2017-10-05T19:07:10.993Z,83.25
2017-10-05T19:09:37.257Z,83.54
2017-10-05T19:12:03.444Z,83.53
2017-10-05T19:14:29.607Z,83.29
2017-10-05T19:16:55.792Z,83.99
2017-10-05T19:19:21.987Z,83.65
2017-10-05T19:21:48.159Z,84.40
2017-10-05T19:24:14.328Z,83.83
2017-10-05T19:26:40.514Z,79.95
2017-10-05T19:29:06.697Z,78.55
2017-10-05T19:31:32.899Z,78.04
2017-10-05T19:33:59.078Z,78.31
2017-10-05T19:36:25.255Z,79.12
2017-10-05T19:38:51.430Z,77.89
2017-10-05T19:41:17.599Z,76.52
2017-10-05T19:43:43.998Z,79.62
2017-10-05T19:46:10.225Z,78.06
2017-10-05T19:48:36.387Z,80.95
2017-10-05T19:51:02.574Z,81.09
2017-10-05T19:53:28.752Z,81.41
2017-10-05T19:55:54.932Z,82.02
2017-10-05T19:58:21.127Z,81.85
2017-10-05T20:00:47.305Z,82.67
2017-10-05T20:03:13.471Z,82.93
2017-10-05T20:05:39.663Z,82.07
2017-10-05T20:08:05.923Z,81.90
2017-10-05T20:10:32.084Z,82.30
2017-10-05T20:12:58.261Z,82.99
2017-10-05T20:15:24.453Z,82.98
2017-10-05T20:17:50.640Z,83.03
2017-10-05T20:20:16.835Z,83.22
2017-10-05T20:22:43.000Z,84.09
2017-10-05T20:25:09.167Z,84.57
2017-10-05T20:27:35.336Z,85.83
2017-10-05T20:30:01.511Z,85.50
2017-10-05T20:32:27.691Z,86.29
2017-10-05T20:34:53.853Z,85.72
2017-10-05T20:37:20.135Z,86.17
2017-10-05T20:39:46.345Z,86.38
2017-10-05T20:42:12.522Z,87.17
2017-10-05T20:44:38.780Z,85.70
2017-10-05T20:47:04.929Z,85.92
2017-10-05T20:49:31.180Z,86.18
2017-10-05T20:51:57.353Z,87.49
2017-10-05T20:54:23.502Z,85.66
2017-10-05T20:56:49.655Z,86.22
2017-10-05T20:59:15.812Z,85.90
2017-10-05T21:01:42.007Z,85.62
2017-10-05T21:04:08.173Z,86.61
2017-10-05T21:06:34.351Z,87.15
2017-10-05T21:09:00.514Z,86.67
2017-10-05T21:11:26.698Z,85.74
2017-10-05T21:13:52.932Z,87.14
2017-10-05T21:16:19.110Z,85.88
2017-10-05T21:18:45.268Z,86.19
2017-10-05T21:21:11.431Z,87.26
2017-10-05T21:23:37.635Z,86.32
2017-10-05T21:26:03.841Z,86.33
2017-10-05T21:28:30.004Z,87.47
2017-10-05T21:30:56.177Z,87.63
2017-10-05T21:33:22.363Z,86.28
2017-10-05T21:35:48.536Z,87.05
2017-10-05T21:38:14.746Z,87.05
2017-10-05T21:40:40.918Z,87.53
2017-10-05T21:43:07.090Z,86.30
2017-10-05T21:45:33.247Z,87.14
2017-10-05T21:47:59.410Z,87.56
2017-10-05T21:50:25.643Z,88.40
2017-10-05T21:52:51.850Z,88.19
2017-10-05T21:55:18.007Z,88.67
2017-10-05T21:57:44.158Z,88.75
2017-10-05T22:00:10.308Z,88.58
2017-10-05T22:02:36.500Z,89.19
2017-10-05T22:05:02.830Z,89.09
2017-10-05T22:07:29.007Z,87.71
2017-10-05T22:09:55.162Z,88.21
2017-10-05T22:12:21.371Z,88.93
2017-10-05T22:14:47.618Z,87.48
2017-10-05T22:17:13.896Z,86.83
2017-10-05T22:19:40.113Z,87.19
2017-10-05T22:22:06.531Z,88.02
2017-10-05T22:24:32.738Z,86.57
2017-10-05T22:26:58.907Z,87.05
2017-10-05T22:29:25.064Z,87.64
2017-10-05T22:31:51.359Z,88.50
2017-10-05T22:34:17.569Z,88.52
2017-10-05T22:36:43.746Z,88.92
2017-10-05T22:39:09.921Z,88.79
2017-10-05T22:41:36.112Z,89.04
2017-10-05T22:44:02.525Z,88.96
2017-10-05T22:46:28.694Z,89.34
2017-10-05T22:48:54.852Z,88.35
2017-10-05T22:51:21.001Z,88.23
2017-10-05T22:53:47.161Z,87.97
2017-10-05T22:56:13.330Z,87.36
2017-10-05T22:58:39.508Z,87.65
2017-10-05T23:01:05.742Z,88.33
2017-10-05T23:03:31.969Z,88.65
2017-10-05T23:05:58.217Z,87.29
2017-10-05T23:08:24.431Z,87.27
2017-10-05T23:10:50.647Z,87.54
2017-10-05T23:13:16.848Z,88.02
2017-10-05T23:15:43.063Z,87.87
2017-10-05T23:18:09.286Z,88.81
2017-10-05T23:20:35.547Z,87.54
2017-10-05T23:23:01.747Z,87.67
2017-10-05T23:25:27.997Z,86.50
2017-10-05T23:27:54.299Z,86.75
2017-10-05T23:30:20.590Z,87.97
2017-10-05T23:32:46.828Z,87.26
2017-10-05T23:35:13.060Z,87.93
2017-10-05T23:37:39.312Z,88.14
2017-10-05T23:40:05.622Z,88.34
2017-10-05T23:42:31.890Z,88.23
2017-10-05T23:44:58.231Z,88.88
2017-10-05T23:47:24.443Z,88.63
2017-10-05T23:49:50.687Z,89.23
2017-10-05T23:52:16.922Z,89.69
2017-10-05T23:54:43.172Z,90.10
2017-10-05T23:57:09.415Z,90.14
2017-10-05T23:59:35.629Z,90.76
